sensor_id;sensor_type;location;lat;lon;timestamp;pressure;altitude;pressure_sealevel;temperature
16956;BMP180;8594;52.052;8.354;2023-05-10T00:01:22;99770.00;;;19.10
16956;BMP180;8594;52.052;8.354;2023-05-10T00:03:49;99771.00;;;19.20
16956;BMP180;8594;52.052;8.354;2023-05-10T00:06:16;99772.00;;;18.90
16956;BMP180;8594;52.052;8.354;2023-05-10T00:08:43;99768.00;;;19.00
16956;BMP180;8594;52.052;8.354;2023-05-10T00:11:10;99765.00;;;18.80
16956;BMP180;8594;52.052;8.354;2023-05-10T00:13:37;99763.00;;;18.90
16956;BMP180;8594;52.052;8.354;2023-05-10T00:16:05;99763.00;;;19.00
16956;BMP180;8594;52.052;8.354;2023-05-10T00:18:33;99771.00;;;19.30
16956;BMP180;8594;52.052;8.354;2023-05-10T00:21:00;99771.00;;;19.10
16956;BMP180;8594;52.052;8.354;2023-05-10T00:23:27;99766.00;;;19.40
16956;BMP180;8594;52.052;8.354;2023-05-10T00:25:54;99761.00;;;19.10
16956;BMP180;8594;52.052;8.354;2023-05-10T00:28:20;99755.00;;;19.10
16956;BMP180;8594;52.052;8.354;2023-05-10T00:30:47;99757.00;;;18.70
16956;BMP180;8594;52.052;8.354;2023-05-10T00:33:14;99763.00;;;18.90
16956;BMP180;8594;52.052;8.354;2023-05-10T00:35:42;99757.00;;;19.00
16956;BMP180;8594;52.052;8.354;2023-05-10T00:38:09;99760.00;;;19.30
16956;BMP180;8594;52.052;8.354;2023-05-10T00:40:36;99756.00;;;19.40
16956;BMP180;8594;52.052;8.354;2023-05-10T00:43:03;99757.00;;;19.50
16956;BMP180;8594;52.052;8.354;2023-05-10T00:45:31;99760.00;;;19.50
16956;BMP180;8594;52.052;8.354;2023-05-10T00:47:58;99752.00;;;19.20
16956;BMP180;8594;52.052;8.354;2023-05-10T00:50:25;99756.00;;;19.00
16956;BMP180;8594;52.052;8.354;2023-05-10T00:52:54;99760.00;;;18.80
16956;BMP180;8594;52.052;8.354;2023-05-10T00:55:21;99762.00;;;18.70
16956;BMP180;8594;52.052;8.354;2023-05-10T00:57:48;99754.00;;;18.70
16956;BMP180;8594;52.052;8.354;2023-05-10T01:00:16;99760.00;;;18.60
16956;BMP180;8594;52.052;8.354;2023-05-10T01:02:44;99755.00;;;18.70
16956;BMP180;8594;52.052;8.354;2023-05-10T01:05:12;99752.00;;;19.00
16956;BMP180;8594;52.052;8.354;2023-05-10T01:07:39;99750.00;;;18.70
16956;BMP180;8594;52.052;8.354;2023-05-10T01:10:09;99754.00;;;18.60
16956;BMP180;8594;52.052;8.354;2023-05-10T01:12:41;99750.00;;;18.70
16956;BMP180;8594;52.052;8.354;2023-05-10T01:15:10;99745.00;;;18.50
16956;BMP180;8594;52.052;8.354;2023-05-10T01:17:41;99743.00;;;18.60
16956;BMP180;8594;52.052;8.354;2023-05-10T01:20:11;99748.00;;;18.90
16956;BMP180;8594;52.052;8.354;2023-05-10T01:23:18;99744.00;;;19.20
16956;BMP180;8594;52.052;8.354;2023-05-10T01:26:16;99748.00;;;18.90
16956;BMP180;8594;52.052;8.354;2023-05-10T01:29:11;99746.00;;;18.60
16956;BMP180;8594;52.052;8.354;2023-05-10T01:32:11;99747.00;;;18.80
16956;BMP180;8594;52.052;8.354;2023-05-10T01:34:49;99750.00;;;18.90
16956;BMP180;8594;52.052;8.354;2023-05-10T01:37:25;99742.00;;;18.70
16956;BMP180;8594;52.052;8.354;2023-05-10T01:40:04;99742.00;;;18.70
16956;BMP180;8594;52.052;8.354;2023-05-10T01:42:40;99743.00;;;18.50
16956;BMP180;8594;52.052;8.354;2023-05-10T01:45:18;99744.00;;;18.40
16956;BMP180;8594;52.052;8.354;2023-05-10T01:47:54;99751.00;;;18.40
16956;BMP180;8594;52.052;8.354;2023-05-10T01:50:29;99747.00;;;18.20
16956;BMP180;8594;52.052;8.354;2023-05-10T01:52:59;99747.00;;;18.20
16956;BMP180;8594;52.052;8.354;2023-05-10T01:55:30;99750.00;;;18.20
16956;BMP180;8594;52.052;8.354;2023-05-10T01:58:05;99747.00;;;18.20
16956;BMP180;8594;52.052;8.354;2023-05-10T02:00:34;99744.00;;;18.40
16956;BMP180;8594;52.052;8.354;2023-05-10T02:03:06;99739.00;;;18.30
16956;BMP180;8594;52.052;8.354;2023-05-10T02:05:37;99747.00;;;18.20
16956;BMP180;8594;52.052;8.354;2023-05-10T02:08:07;99744.00;;;18.30
16956;BMP180;8594;52.052;8.354;2023-05-10T02:10:35;99745.00;;;18.40
16956;BMP180;8594;52.052;8.354;2023-05-10T02:13:03;99746.00;;;18.50
16956;BMP180;8594;52.052;8.354;2023-05-10T02:15:33;99751.00;;;18.50
16956;BMP180;8594;52.052;8.354;2023-05-10T02:18:05;99751.00;;;18.50
16956;BMP180;8594;52.052;8.354;2023-05-10T02:20:33;99750.00;;;18.40
16956;BMP180;8594;52.052;8.354;2023-05-10T02:23:03;99755.00;;;18.40
16956;BMP180;8594;52.052;8.354;2023-05-10T02:25:32;99759.00;;;18.10
16956;BMP180;8594;52.052;8.354;2023-05-10T02:28:03;99757.00;;;18.20
16956;BMP180;8594;52.052;8.354;2023-05-10T02:30:32;99758.00;;;18.10
16956;BMP180;8594;52.052;8.354;2023-05-10T02:33:01;99767.00;;;18.30
16956;BMP180;8594;52.052;8.354;2023-05-10T02:35:33;99759.00;;;17.80
16956;BMP180;8594;52.052;8.354;2023-05-10T02:38:01;99762.00;;;17.90
16956;BMP180;8594;52.052;8.354;2023-05-10T02:40:29;99752.00;;;17.90
16956;BMP180;8594;52.052;8.354;2023-05-10T02:42:57;99755.00;;;18.00
16956;BMP180;8594;52.052;8.354;2023-05-10T02:45:29;99762.00;;;17.80
16956;BMP180;8594;52.052;8.354;2023-05-10T02:47:57;99750.00;;;18.00
16956;BMP180;8594;52.052;8.354;2023-05-10T02:50:27;99754.00;;;17.70
16956;BMP180;8594;52.052;8.354;2023-05-10T02:53:00;99752.00;;;18.10
16956;BMP180;8594;52.052;8.354;2023-05-10T02:55:35;99748.00;;;17.80
16956;BMP180;8594;52.052;8.354;2023-05-10T02:58:03;99747.00;;;17.70
16956;BMP180;8594;52.052;8.354;2023-05-10T03:00:31;99744.00;;;17.80
16956;BMP180;8594;52.052;8.354;2023-05-10T03:02:58;99746.00;;;17.60
16956;BMP180;8594;52.052;8.354;2023-05-10T03:05:26;99746.00;;;17.60
16956;BMP180;8594;52.052;8.354;2023-05-10T03:07:56;99742.00;;;17.90
16956;BMP180;8594;52.052;8.354;2023-05-10T03:10:28;99749.00;;;18.00
16956;BMP180;8594;52.052;8.354;2023-05-10T03:13:12;99753.00;;;17.90
16956;BMP180;8594;52.052;8.354;2023-05-10T03:15:56;99755.00;;;17.70
16956;BMP180;8594;52.052;8.354;2023-05-10T03:18:36;99750.00;;;17.90
16956;BMP180;8594;52.052;8.354;2023-05-10T03:21:10;99758.00;;;17.80
16956;BMP180;8594;52.052;8.354;2023-05-10T03:23:43;99759.00;;;18.00
16956;BMP180;8594;52.052;8.354;2023-05-10T03:26:20;99752.00;;;17.80
16956;BMP180;8594;52.052;8.354;2023-05-10T03:28:48;99757.00;;;17.70
16956;BMP180;8594;52.052;8.354;2023-05-10T03:31:15;99762.00;;;17.80
16956;BMP180;8594;52.052;8.354;2023-05-10T03:33:47;99760.00;;;17.30
16956;BMP180;8594;52.052;8.354;2023-05-10T03:36:14;99758.00;;;17.40
16956;BMP180;8594;52.052;8.354;2023-05-10T03:38:43;99760.00;;;17.40
16956;BMP180;8594;52.052;8.354;2023-05-10T03:41:09;99759.00;;;17.00
16956;BMP180;8594;52.052;8.354;2023-05-10T03:43:36;99769.00;;;16.90
16956;BMP180;8594;52.052;8.354;2023-05-10T03:46:04;99769.00;;;17.40
16956;BMP180;8594;52.052;8.354;2023-05-10T03:48:32;99771.00;;;17.50
16956;BMP180;8594;52.052;8.354;2023-05-10T03:50:59;99779.00;;;17.40
16956;BMP180;8594;52.052;8.354;2023-05-10T03:53:26;99783.00;;;17.00
16956;BMP180;8594;52.052;8.354;2023-05-10T03:55:54;99775.00;;;17.20
16956;BMP180;8594;52.052;8.354;2023-05-10T03:58:21;99782.00;;;16.90
16956;BMP180;8594;52.052;8.354;2023-05-10T04:00:48;99786.00;;;16.70
16956;BMP180;8594;52.052;8.354;2023-05-10T04:03:15;99779.00;;;17.10
16956;BMP180;8594;52.052;8.354;2023-05-10T04:05:42;99790.00;;;16.60
16956;BMP180;8594;52.052;8.354;2023-05-10T04:08:09;99788.00;;;16.30
16956;BMP180;8594;52.052;8.354;2023-05-10T04:10:36;99792.00;;;16.50
16956;BMP180;8594;52.052;8.354;2023-05-10T04:13:04;99789.00;;;16.70
16956;BMP180;8594;52.052;8.354;2023-05-10T04:15:31;99795.00;;;16.70
16956;BMP180;8594;52.052;8.354;2023-05-10T04:17:58;99798.00;;;16.50
16956;BMP180;8594;52.052;8.354;2023-05-10T04:20:24;99797.00;;;16.50
16956;BMP180;8594;52.052;8.354;2023-05-10T04:22:51;99802.00;;;16.40
16956;BMP180;8594;52.052;8.354;2023-05-10T04:25:18;99803.00;;;16.50
16956;BMP180;8594;52.052;8.354;2023-05-10T04:27:45;99809.00;;;16.90
16956;BMP180;8594;52.052;8.354;2023-05-10T04:30:13;99808.00;;;16.60
16956;BMP180;8594;52.052;8.354;2023-05-10T04:32:40;99807.00;;;16.40
16956;BMP180;8594;52.052;8.354;2023-05-10T04:35:08;99818.00;;;16.70
16956;BMP180;8594;52.052;8.354;2023-05-10T04:37:35;99823.00;;;16.60
16956;BMP180;8594;52.052;8.354;2023-05-10T04:40:03;99818.00;;;16.60
16956;BMP180;8594;52.052;8.354;2023-05-10T04:42:30;99827.00;;;16.60
16956;BMP180;8594;52.052;8.354;2023-05-10T04:44:57;99826.00;;;16.60
16956;BMP180;8594;52.052;8.354;2023-05-10T04:47:26;99829.00;;;16.40
16956;BMP180;8594;52.052;8.354;2023-05-10T04:49:52;99836.00;;;16.40
16956;BMP180;8594;52.052;8.354;2023-05-10T04:52:19;99834.00;;;16.30
16956;BMP180;8594;52.052;8.354;2023-05-10T04:54:46;99835.00;;;16.50
16956;BMP180;8594;52.052;8.354;2023-05-10T04:57:13;99834.00;;;16.40
16956;BMP180;8594;52.052;8.354;2023-05-10T04:59:40;99841.00;;;16.90
16956;BMP180;8594;52.052;8.354;2023-05-10T05:02:06;99842.00;;;16.50
16956;BMP180;8594;52.052;8.354;2023-05-10T05:04:34;99847.00;;;16.80
16956;BMP180;8594;52.052;8.354;2023-05-10T05:07:01;99855.00;;;16.10
16956;BMP180;8594;52.052;8.354;2023-05-10T05:09:28;99856.00;;;16.60
16956;BMP180;8594;52.052;8.354;2023-05-10T05:11:57;99859.00;;;16.60
16956;BMP180;8594;52.052;8.354;2023-05-10T05:14:24;99859.00;;;16.50
16956;BMP180;8594;52.052;8.354;2023-05-10T05:16:51;99870.00;;;16.40
16956;BMP180;8594;52.052;8.354;2023-05-10T05:19:18;99864.00;;;16.20
16956;BMP180;8594;52.052;8.354;2023-05-10T05:21:46;99870.00;;;16.40
16956;BMP180;8594;52.052;8.354;2023-05-10T05:24:13;99869.00;;;16.40
16956;BMP180;8594;52.052;8.354;2023-05-10T05:26:39;99879.00;;;16.10
16956;BMP180;8594;52.052;8.354;2023-05-10T05:29:07;99874.00;;;16.50
16956;BMP180;8594;52.052;8.354;2023-05-10T05:31:33;99882.00;;;16.00
16956;BMP180;8594;52.052;8.354;2023-05-10T05:34:00;99878.00;;;16.20
16956;BMP180;8594;52.052;8.354;2023-05-10T05:36:27;99889.00;;;16.20
16956;BMP180;8594;52.052;8.354;2023-05-10T05:38:55;99887.00;;;15.90
16956;BMP180;8594;52.052;8.354;2023-05-10T05:41:22;99891.00;;;16.20
16956;BMP180;8594;52.052;8.354;2023-05-10T05:43:50;99888.00;;;16.00
16956;BMP180;8594;52.052;8.354;2023-05-10T05:46:17;99899.00;;;16.50
16956;BMP180;8594;52.052;8.354;2023-05-10T05:48:44;99897.00;;;16.30
16956;BMP180;8594;52.052;8.354;2023-05-10T05:51:11;99894.00;;;16.20
16956;BMP180;8594;52.052;8.354;2023-05-10T05:53:38;99889.00;;;16.40
16956;BMP180;8594;52.052;8.354;2023-05-10T05:56:06;99896.00;;;16.50
16956;BMP180;8594;52.052;8.354;2023-05-10T05:58:33;99909.00;;;16.40
16956;BMP180;8594;52.052;8.354;2023-05-10T06:01:00;99913.00;;;16.70
16956;BMP180;8594;52.052;8.354;2023-05-10T06:03:27;99917.00;;;17.00
16956;BMP180;8594;52.052;8.354;2023-05-10T06:05:54;99918.00;;;16.90
16956;BMP180;8594;52.052;8.354;2023-05-10T06:08:20;99918.00;;;16.80
16956;BMP180;8594;52.052;8.354;2023-05-10T06:10:48;99926.00;;;16.70
16956;BMP180;8594;52.052;8.354;2023-05-10T06:13:16;99925.00;;;16.90
16956;BMP180;8594;52.052;8.354;2023-05-10T06:15:42;99924.00;;;16.80
16956;BMP180;8594;52.052;8.354;2023-05-10T06:18:09;99936.00;;;16.90
16956;BMP180;8594;52.052;8.354;2023-05-10T06:20:36;99937.00;;;16.80
16956;BMP180;8594;52.052;8.354;2023-05-10T06:23:03;99944.00;;;16.90
16956;BMP180;8594;52.052;8.354;2023-05-10T06:25:29;99945.00;;;16.90
16956;BMP180;8594;52.052;8.354;2023-05-10T06:27:56;99935.00;;;16.90
16956;BMP180;8594;52.052;8.354;2023-05-10T06:30:25;99949.00;;;17.20
16956;BMP180;8594;52.052;8.354;2023-05-10T06:32:54;99944.00;;;17.10
16956;BMP180;8594;52.052;8.354;2023-05-10T06:35:21;99950.00;;;17.10
16956;BMP180;8594;52.052;8.354;2023-05-10T06:37:48;99947.00;;;16.80
16956;BMP180;8594;52.052;8.354;2023-05-10T06:40:16;99950.00;;;16.90
16956;BMP180;8594;52.052;8.354;2023-05-10T06:42:43;99953.00;;;17.00
16956;BMP180;8594;52.052;8.354;2023-05-10T06:45:12;99947.00;;;17.20
16956;BMP180;8594;52.052;8.354;2023-05-10T06:47:41;99956.00;;;17.20
16956;BMP180;8594;52.052;8.354;2023-05-10T06:50:09;99956.00;;;17.30
16956;BMP180;8594;52.052;8.354;2023-05-10T06:52:37;99964.00;;;17.30
16956;BMP180;8594;52.052;8.354;2023-05-10T06:55:05;99962.00;;;17.30
16956;BMP180;8594;52.052;8.354;2023-05-10T06:57:32;99968.00;;;17.40
16956;BMP180;8594;52.052;8.354;2023-05-10T06:59:59;99973.00;;;17.30
16956;BMP180;8594;52.052;8.354;2023-05-10T07:02:26;99974.00;;;17.60
16956;BMP180;8594;52.052;8.354;2023-05-10T07:04:54;99970.00;;;17.50
16956;BMP180;8594;52.052;8.354;2023-05-10T07:07:21;99970.00;;;17.50
16956;BMP180;8594;52.052;8.354;2023-05-10T07:09:48;99981.00;;;17.60
16956;BMP180;8594;52.052;8.354;2023-05-10T07:12:15;99978.00;;;17.50
16956;BMP180;8594;52.052;8.354;2023-05-10T07:14:42;99972.00;;;17.20
16956;BMP180;8594;52.052;8.354;2023-05-10T07:17:09;99974.00;;;17.40
16956;BMP180;8594;52.052;8.354;2023-05-10T07:19:36;99978.00;;;17.20
16956;BMP180;8594;52.052;8.354;2023-05-10T07:22:04;99984.00;;;17.40
16956;BMP180;8594;52.052;8.354;2023-05-10T07:24:32;99991.00;;;17.40
16956;BMP180;8594;52.052;8.354;2023-05-10T07:26:59;99986.00;;;17.40
16956;BMP180;8594;52.052;8.354;2023-05-10T07:29:26;99980.00;;;17.50
16956;BMP180;8594;52.052;8.354;2023-05-10T07:31:54;99986.00;;;17.20
16956;BMP180;8594;52.052;8.354;2023-05-10T07:34:20;99992.00;;;17.20
16956;BMP180;8594;52.052;8.354;2023-05-10T07:36:47;99987.00;;;17.50
16956;BMP180;8594;52.052;8.354;2023-05-10T07:39:15;99984.00;;;17.40
16956;BMP180;8594;52.052;8.354;2023-05-10T07:41:42;99986.00;;;17.80
16956;BMP180;8594;52.052;8.354;2023-05-10T07:44:09;99989.00;;;17.60
16956;BMP180;8594;52.052;8.354;2023-05-10T07:46:36;99993.00;;;17.30
16956;BMP180;8594;52.052;8.354;2023-05-10T07:49:04;99992.00;;;17.60
16956;BMP180;8594;52.052;8.354;2023-05-10T07:51:31;99993.00;;;17.90
16956;BMP180;8594;52.052;8.354;2023-05-10T07:53:58;99999.00;;;17.50
16956;BMP180;8594;52.052;8.354;2023-05-10T07:56:28;99993.00;;;17.60
16956;BMP180;8594;52.052;8.354;2023-05-10T07:58:56;99996.00;;;17.90
16956;BMP180;8594;52.052;8.354;2023-05-10T08:01:23;99999.00;;;17.70
16956;BMP180;8594;52.052;8.354;2023-05-10T08:03:50;99998.00;;;17.80
16956;BMP180;8594;52.052;8.354;2023-05-10T08:06:19;99998.00;;;18.20
16956;BMP180;8594;52.052;8.354;2023-05-10T08:08:47;99993.00;;;18.20
16956;BMP180;8594;52.052;8.354;2023-05-10T08:11:16;99989.00;;;18.20
16956;BMP180;8594;52.052;8.354;2023-05-10T08:13:44;100001.00;;;18.50
16956;BMP180;8594;52.052;8.354;2023-05-10T08:16:11;99992.00;;;18.50
16956;BMP180;8594;52.052;8.354;2023-05-10T08:18:39;100005.00;;;18.90
16956;BMP180;8594;52.052;8.354;2023-05-10T08:21:06;100009.00;;;18.50
16956;BMP180;8594;52.052;8.354;2023-05-10T08:23:33;100009.00;;;18.70
16956;BMP180;8594;52.052;8.354;2023-05-10T08:26:00;100017.00;;;18.50
16956;BMP180;8594;52.052;8.354;2023-05-10T08:28:27;100017.00;;;18.50
16956;BMP180;8594;52.052;8.354;2023-05-10T08:30:55;100011.00;;;18.60
16956;BMP180;8594;52.052;8.354;2023-05-10T08:33:22;100016.00;;;18.40
16956;BMP180;8594;52.052;8.354;2023-05-10T08:35:49;100011.00;;;18.50
16956;BMP180;8594;52.052;8.354;2023-05-10T08:38:16;100012.00;;;18.50
16956;BMP180;8594;52.052;8.354;2023-05-10T08:40:43;100023.00;;;18.60
16956;BMP180;8594;52.052;8.354;2023-05-10T08:43:12;100027.00;;;18.90
16956;BMP180;8594;52.052;8.354;2023-05-10T08:45:42;100024.00;;;18.70
16956;BMP180;8594;52.052;8.354;2023-05-10T08:48:12;100024.00;;;18.40
16956;BMP180;8594;52.052;8.354;2023-05-10T08:50:40;100023.00;;;18.70
16956;BMP180;8594;52.052;8.354;2023-05-10T08:53:11;100033.00;;;18.70
16956;BMP180;8594;52.052;8.354;2023-05-10T08:55:39;100031.00;;;18.40
16956;BMP180;8594;52.052;8.354;2023-05-10T08:58:09;100042.00;;;18.20
16956;BMP180;8594;52.052;8.354;2023-05-10T09:00:36;100037.00;;;18.20
16956;BMP180;8594;52.052;8.354;2023-05-10T09:03:05;100049.00;;;18.30
16956;BMP180;8594;52.052;8.354;2023-05-10T09:05:33;100046.00;;;18.10
16956;BMP180;8594;52.052;8.354;2023-05-10T09:07:59;100056.00;;;18.60
16956;BMP180;8594;52.052;8.354;2023-05-10T09:10:29;100056.00;;;18.80
16956;BMP180;8594;52.052;8.354;2023-05-10T09:12:57;100053.00;;;18.40
16956;BMP180;8594;52.052;8.354;2023-05-10T09:15:24;100050.00;;;18.50
16956;BMP180;8594;52.052;8.354;2023-05-10T09:17:50;100050.00;;;18.70
16956;BMP180;8594;52.052;8.354;2023-05-10T09:20:17;100051.00;;;18.70
16956;BMP180;8594;52.052;8.354;2023-05-10T09:22:45;100059.00;;;19.40
16956;BMP180;8594;52.052;8.354;2023-05-10T09:25:15;100061.00;;;19.40
16956;BMP180;8594;52.052;8.354;2023-05-10T09:27:46;100059.00;;;19.20
16956;BMP180;8594;52.052;8.354;2023-05-10T09:30:17;100073.00;;;19.70
16956;BMP180;8594;52.052;8.354;2023-05-10T09:32:47;100067.00;;;19.80
16956;BMP180;8594;52.052;8.354;2023-05-10T09:35:16;100070.00;;;19.70
16956;BMP180;8594;52.052;8.354;2023-05-10T09:37:46;100076.00;;;19.70
16956;BMP180;8594;52.052;8.354;2023-05-10T09:40:16;100069.00;;;20.00
16956;BMP180;8594;52.052;8.354;2023-05-10T09:42:52;100076.00;;;20.10
16956;BMP180;8594;52.052;8.354;2023-05-10T09:45:20;100077.00;;;20.50
16956;BMP180;8594;52.052;8.354;2023-05-10T09:47:47;100076.00;;;20.40
16956;BMP180;8594;52.052;8.354;2023-05-10T09:50:14;100083.00;;;21.00
16956;BMP180;8594;52.052;8.354;2023-05-10T09:52:51;100075.00;;;20.80
16956;BMP180;8594;52.052;8.354;2023-05-10T09:55:21;100081.00;;;20.50
16956;BMP180;8594;52.052;8.354;2023-05-10T09:57:49;100078.00;;;19.40
16956;BMP180;8594;52.052;8.354;2023-05-10T10:00:20;100076.00;;;20.40
16956;BMP180;8594;52.052;8.354;2023-05-10T10:02:54;100075.00;;;21.40
16956;BMP180;8594;52.052;8.354;2023-05-10T10:05:27;100060.00;;;21.70
16956;BMP180;8594;52.052;8.354;2023-05-10T10:07:57;100066.00;;;21.60
16956;BMP180;8594;52.052;8.354;2023-05-10T10:10:25;100070.00;;;21.00
16956;BMP180;8594;52.052;8.354;2023-05-10T10:12:52;100069.00;;;21.80
16956;BMP180;8594;52.052;8.354;2023-05-10T10:15:20;100078.00;;;21.70
16956;BMP180;8594;52.052;8.354;2023-05-10T10:17:48;100068.00;;;22.00
16956;BMP180;8594;52.052;8.354;2023-05-10T10:20:16;100069.00;;;21.50
16956;BMP180;8594;52.052;8.354;2023-05-10T10:22:44;100055.00;;;23.20
16956;BMP180;8594;52.052;8.354;2023-05-10T10:25:15;100058.00;;;23.00
16956;BMP180;8594;52.052;8.354;2023-05-10T10:27:54;100073.00;;;22.30
16956;BMP180;8594;52.052;8.354;2023-05-10T10:30:29;100070.00;;;21.60
16956;BMP180;8594;52.052;8.354;2023-05-10T10:33:33;100058.00;;;21.40
16956;BMP180;8594;52.052;8.354;2023-05-10T10:36:04;100067.00;;;21.80
16956;BMP180;8594;52.052;8.354;2023-05-10T10:38:58;100073.00;;;21.50
16956;BMP180;8594;52.052;8.354;2023-05-10T10:41:33;100078.00;;;21.60
16956;BMP180;8594;52.052;8.354;2023-05-10T10:44:36;100080.00;;;21.40
16956;BMP180;8594;52.052;8.354;2023-05-10T10:47:21;100080.00;;;21.70
16956;BMP180;8594;52.052;8.354;2023-05-10T10:50:04;100082.00;;;21.40
16956;BMP180;8594;52.052;8.354;2023-05-10T10:52:33;100070.00;;;21.20
16956;BMP180;8594;52.052;8.354;2023-05-10T10:55:03;100066.00;;;21.40
16956;BMP180;8594;52.052;8.354;2023-05-10T10:57:46;100065.00;;;22.40
16956;BMP180;8594;52.052;8.354;2023-05-10T11:00:26;100069.00;;;22.30
16956;BMP180;8594;52.052;8.354;2023-05-10T11:02:56;100058.00;;;22.30
16956;BMP180;8594;52.052;8.354;2023-05-10T11:08:16;100061.00;;;23.50
16956;BMP180;8594;52.052;8.354;2023-05-10T11:11:05;100082.00;;;23.80
16956;BMP180;8594;52.052;8.354;2023-05-10T11:13:40;100077.00;;;24.40
16956;BMP180;8594;52.052;8.354;2023-05-10T11:16:16;100074.00;;;23.60
16956;BMP180;8594;52.052;8.354;2023-05-10T11:18:56;100086.00;;;23.80
16956;BMP180;8594;52.052;8.354;2023-05-10T11:21:23;100091.00;;;24.20
16956;BMP180;8594;52.052;8.354;2023-05-10T11:23:52;100093.00;;;22.70
16956;BMP180;8594;52.052;8.354;2023-05-10T11:26:22;100092.00;;;22.80
16956;BMP180;8594;52.052;8.354;2023-05-10T11:28:53;100094.00;;;22.60
16956;BMP180;8594;52.052;8.354;2023-05-10T11:31:22;100088.00;;;22.00
16956;BMP180;8594;52.052;8.354;2023-05-10T11:33:54;100091.00;;;22.10
16956;BMP180;8594;52.052;8.354;2023-05-10T11:36:24;100094.00;;;22.10
16956;BMP180;8594;52.052;8.354;2023-05-10T11:38:52;100096.00;;;22.10
16956;BMP180;8594;52.052;8.354;2023-05-10T11:41:20;100095.00;;;22.10
16956;BMP180;8594;52.052;8.354;2023-05-10T11:43:52;100091.00;;;22.80
16956;BMP180;8594;52.052;8.354;2023-05-10T11:46:22;100099.00;;;23.50
16956;BMP180;8594;52.052;8.354;2023-05-10T11:48:51;100108.00;;;22.80
16956;BMP180;8594;52.052;8.354;2023-05-10T11:51:21;100107.00;;;22.50
16956;BMP180;8594;52.052;8.354;2023-05-10T11:53:50;100095.00;;;23.90
16956;BMP180;8594;52.052;8.354;2023-05-10T11:56:17;100092.00;;;23.70
16956;BMP180;8594;52.052;8.354;2023-05-10T11:58:44;100099.00;;;23.90
16956;BMP180;8594;52.052;8.354;2023-05-10T12:01:14;100105.00;;;24.10
16956;BMP180;8594;52.052;8.354;2023-05-10T12:03:42;100099.00;;;24.40
16956;BMP180;8594;52.052;8.354;2023-05-10T12:06:10;100105.00;;;24.40
16956;BMP180;8594;52.052;8.354;2023-05-10T12:08:44;100113.00;;;25.10
16956;BMP180;8594;52.052;8.354;2023-05-10T12:11:13;100107.00;;;24.80
16956;BMP180;8594;52.052;8.354;2023-05-10T12:13:43;100115.00;;;24.30
16956;BMP180;8594;52.052;8.354;2023-05-10T12:16:18;100103.00;;;24.00
16956;BMP180;8594;52.052;8.354;2023-05-10T12:18:47;100103.00;;;24.30
16956;BMP180;8594;52.052;8.354;2023-05-10T12:21:15;100109.00;;;23.80
16956;BMP180;8594;52.052;8.354;2023-05-10T12:23:42;100121.00;;;23.70
16956;BMP180;8594;52.052;8.354;2023-05-10T12:26:11;100123.00;;;23.70
16956;BMP180;8594;52.052;8.354;2023-05-10T12:28:38;100136.00;;;23.50
16956;BMP180;8594;52.052;8.354;2023-05-10T12:31:06;100131.00;;;22.80
16956;BMP180;8594;52.052;8.354;2023-05-10T12:33:38;100126.00;;;22.90
16956;BMP180;8594;52.052;8.354;2023-05-10T12:36:09;100130.00;;;23.80
16956;BMP180;8594;52.052;8.354;2023-05-10T12:38:38;100118.00;;;24.20
16956;BMP180;8594;52.052;8.354;2023-05-10T12:41:10;100131.00;;;24.20
16956;BMP180;8594;52.052;8.354;2023-05-10T12:43:38;100131.00;;;24.60
16956;BMP180;8594;52.052;8.354;2023-05-10T12:46:07;100131.00;;;24.00
16956;BMP180;8594;52.052;8.354;2023-05-10T12:48:34;100128.00;;;23.50
16956;BMP180;8594;52.052;8.354;2023-05-10T12:51:03;100135.00;;;24.00
16956;BMP180;8594;52.052;8.354;2023-05-10T12:53:31;100133.00;;;22.90
16956;BMP180;8594;52.052;8.354;2023-05-10T12:55:58;100147.00;;;23.10
16956;BMP180;8594;52.052;8.354;2023-05-10T12:58:24;100153.00;;;22.90
16956;BMP180;8594;52.052;8.354;2023-05-10T13:00:52;100150.00;;;22.80
16956;BMP180;8594;52.052;8.354;2023-05-10T13:03:19;100150.00;;;22.00
16956;BMP180;8594;52.052;8.354;2023-05-10T13:05:46;100161.00;;;22.30
16956;BMP180;8594;52.052;8.354;2023-05-10T13:08:14;100165.00;;;21.90
16956;BMP180;8594;52.052;8.354;2023-05-10T13:10:41;100177.00;;;22.00
16956;BMP180;8594;52.052;8.354;2023-05-10T13:13:08;100196.00;;;21.70
16956;BMP180;8594;52.052;8.354;2023-05-10T13:15:35;100201.00;;;21.40
16956;BMP180;8594;52.052;8.354;2023-05-10T13:18:02;100193.00;;;20.80
16956;BMP180;8594;52.052;8.354;2023-05-10T13:20:28;100198.00;;;20.50
16956;BMP180;8594;52.052;8.354;2023-05-10T13:22:55;100185.00;;;20.00
16956;BMP180;8594;52.052;8.354;2023-05-10T13:25:24;100186.00;;;20.20
16956;BMP180;8594;52.052;8.354;2023-05-10T13:27:50;100186.00;;;19.90
16956;BMP180;8594;52.052;8.354;2023-05-10T13:30:17;100195.00;;;20.20
16956;BMP180;8594;52.052;8.354;2023-05-10T13:32:44;100194.00;;;20.00
16956;BMP180;8594;52.052;8.354;2023-05-10T13:35:11;100202.00;;;19.70
16956;BMP180;8594;52.052;8.354;2023-05-10T13:37:38;100210.00;;;19.80
16956;BMP180;8594;52.052;8.354;2023-05-10T13:40:06;100210.00;;;20.30
16956;BMP180;8594;52.052;8.354;2023-05-10T13:42:34;100199.00;;;20.20
16956;BMP180;8594;52.052;8.354;2023-05-10T13:45:01;100197.00;;;20.20
16956;BMP180;8594;52.052;8.354;2023-05-10T13:47:28;100195.00;;;20.20
16956;BMP180;8594;52.052;8.354;2023-05-10T13:49:55;100198.00;;;20.30
16956;BMP180;8594;52.052;8.354;2023-05-10T13:52:23;100190.00;;;20.70
16956;BMP180;8594;52.052;8.354;2023-05-10T13:54:49;100189.00;;;20.80
16956;BMP180;8594;52.052;8.354;2023-05-10T13:57:17;100195.00;;;21.00
16956;BMP180;8594;52.052;8.354;2023-05-10T13:59:46;100186.00;;;21.10
16956;BMP180;8594;52.052;8.354;2023-05-10T14:02:13;100182.00;;;21.50
16956;BMP180;8594;52.052;8.354;2023-05-10T14:04:40;100190.00;;;21.50
16956;BMP180;8594;52.052;8.354;2023-05-10T14:07:06;100185.00;;;21.80
16956;BMP180;8594;52.052;8.354;2023-05-10T14:09:33;100181.00;;;21.50
16956;BMP180;8594;52.052;8.354;2023-05-10T14:12:00;100186.00;;;21.70
16956;BMP180;8594;52.052;8.354;2023-05-10T14:14:27;100190.00;;;21.20
16956;BMP180;8594;52.052;8.354;2023-05-10T14:16:56;100184.00;;;21.40
16956;BMP180;8594;52.052;8.354;2023-05-10T14:19:22;100182.00;;;21.50
16956;BMP180;8594;52.052;8.354;2023-05-10T14:21:49;100184.00;;;21.40
16956;BMP180;8594;52.052;8.354;2023-05-10T14:24:17;100188.00;;;21.40
16956;BMP180;8594;52.052;8.354;2023-05-10T14:26:44;100181.00;;;21.90
16956;BMP180;8594;52.052;8.354;2023-05-10T14:29:11;100192.00;;;21.90
16956;BMP180;8594;52.052;8.354;2023-05-10T14:31:39;100189.00;;;22.00